sensor_id;sensor_type;location;lat;lon;timestamp;P1;durP1;ratioP1;P2;durP2;ratioP2
562;SDS011;266;49.514;8.294;2024-02-14T00:01:37;5.90;;;4.30;;
562;SDS011;266;49.514;8.294;2024-02-14T00:04:05;5.33;;;3.30;;
562;SDS011;266;49.514;8.294;2024-02-14T00:06:34;4.77;;;4.33;;
562;SDS011;266;49.514;8.294;2024-02-14T00:09:03;5.20;;;4.07;;
562;SDS011;266;49.514;8.294;2024-02-14T00:11:33;4.07;;;3.67;;
562;SDS011;266;49.514;8.294;2024-02-14T00:14:02;3.67;;;3.23;;
562;SDS011;266;49.514;8.294;2024-02-14T00:16:30;4.73;;;3.67;;
562;SDS011;266;49.514;8.294;2024-02-14T00:18:59;3.57;;;3.27;;
562;SDS011;266;49.514;8.294;2024-02-14T00:21:29;4.30;;;3.87;;
562;SDS011;266;49.514;8.294;2024-02-14T00:23:58;3.97;;;3.57;;
562;SDS011;266;49.514;8.294;2024-02-14T00:26:26;4.20;;;3.80;;
562;SDS011;266;49.514;8.294;2024-02-14T00:28:54;3.93;;;3.57;;
562;SDS011;266;49.514;8.294;2024-02-14T00:31:23;6.10;;;4.37;;
562;SDS011;266;49.514;8.294;2024-02-14T00:33:51;4.47;;;4.03;;
562;SDS011;266;49.514;8.294;2024-02-14T00:36:19;4.03;;;3.70;;
562;SDS011;266;49.514;8.294;2024-02-14T00:38:47;5.00;;;3.93;;
562;SDS011;266;49.514;8.294;2024-02-14T00:41:15;5.33;;;3.90;;
562;SDS011;266;49.514;8.294;2024-02-14T00:43:43;5.10;;;4.03;;
562;SDS011;266;49.514;8.294;2024-02-14T00:46:15;4.40;;;4.00;;
562;SDS011;266;49.514;8.294;2024-02-14T00:48:45;6.30;;;4.40;;
562;SDS011;266;49.514;8.294;2024-02-14T00:51:13;5.33;;;3.70;;
562;SDS011;266;49.514;8.294;2024-02-14T00:53:41;6.87;;;4.17;;
562;SDS011;266;49.514;8.294;2024-02-14T00:56:09;7.17;;;4.87;;
562;SDS011;266;49.514;8.294;2024-02-14T00:58:37;4.10;;;3.80;;
562;SDS011;266;49.514;8.294;2024-02-14T01:01:05;5.53;;;4.10;;
562;SDS011;266;49.514;8.294;2024-02-14T01:03:33;4.10;;;3.70;;
562;SDS011;266;49.514;8.294;2024-02-14T01:06:03;3.63;;;3.33;;
562;SDS011;266;49.514;8.294;2024-02-14T01:08:31;5.30;;;3.60;;
562;SDS011;266;49.514;8.294;2024-02-14T01:11:00;4.50;;;4.10;;
562;SDS011;266;49.514;8.294;2024-02-14T01:13:28;4.00;;;3.47;;
562;SDS011;266;49.514;8.294;2024-02-14T01:15:56;4.60;;;3.63;;
562;SDS011;266;49.514;8.294;2024-02-14T01:18:23;4.30;;;3.90;;
562;SDS011;266;49.514;8.294;2024-02-14T01:20:52;7.10;;;4.50;;
562;SDS011;266;49.514;8.294;2024-02-14T01:23:22;4.90;;;4.40;;
562;SDS011;266;49.514;8.294;2024-02-14T01:25:49;5.00;;;4.47;;
562;SDS011;266;49.514;8.294;2024-02-14T01:28:17;6.97;;;4.87;;
562;SDS011;266;49.514;8.294;2024-02-14T01:30:45;4.97;;;4.50;;
562;SDS011;266;49.514;8.294;2024-02-14T01:33:14;4.30;;;3.90;;
562;SDS011;266;49.514;8.294;2024-02-14T01:35:43;4.57;;;4.13;;
562;SDS011;266;49.514;8.294;2024-02-14T01:38:11;3.80;;;3.50;;
562;SDS011;266;49.514;8.294;2024-02-14T01:40:43;4.80;;;4.13;;
562;SDS011;266;49.514;8.294;2024-02-14T01:43:11;5.17;;;4.77;;
562;SDS011;266;49.514;8.294;2024-02-14T01:45:40;4.20;;;3.90;;
562;SDS011;266;49.514;8.294;2024-02-14T01:48:08;6.67;;;4.60;;
562;SDS011;266;49.514;8.294;2024-02-14T01:50:37;3.80;;;3.50;;
562;SDS011;266;49.514;8.294;2024-02-14T01:53:07;3.77;;;3.47;;
562;SDS011;266;49.514;8.294;2024-02-14T01:55:35;6.07;;;4.30;;
562;SDS011;266;49.514;8.294;2024-02-14T01:58:05;4.43;;;4.07;;
562;SDS011;266;49.514;8.294;2024-02-14T02:00:34;7.23;;;4.67;;
562;SDS011;266;49.514;8.294;2024-02-14T02:03:03;4.07;;;3.77;;
562;SDS011;266;49.514;8.294;2024-02-14T02:05:31;11.20;;;4.30;;
562;SDS011;266;49.514;8.294;2024-02-14T02:08:00;5.80;;;4.37;;
562;SDS011;266;49.514;8.294;2024-02-14T02:10:28;4.37;;;3.60;;
562;SDS011;266;49.514;8.294;2024-02-14T02:12:59;5.80;;;4.40;;
562;SDS011;266;49.514;8.294;2024-02-14T02:15:29;5.27;;;3.63;;
562;SDS011;266;49.514;8.294;2024-02-14T02:17:57;5.07;;;4.23;;
562;SDS011;266;49.514;8.294;2024-02-14T02:20:26;4.53;;;4.13;;
562;SDS011;266;49.514;8.294;2024-02-14T02:22:56;7.97;;;4.90;;
562;SDS011;266;49.514;8.294;2024-02-14T02:25:24;4.87;;;4.40;;
562;SDS011;266;49.514;8.294;2024-02-14T02:27:53;8.03;;;4.53;;
562;SDS011;266;49.514;8.294;2024-02-14T02:30:24;5.40;;;4.90;;
562;SDS011;266;49.514;8.294;2024-02-14T02:32:53;8.73;;;4.60;;
562;SDS011;266;49.514;8.294;2024-02-14T02:35:22;7.37;;;5.30;;
562;SDS011;266;49.514;8.294;2024-02-14T02:37:50;6.07;;;4.60;;
562;SDS011;266;49.514;8.294;2024-02-14T02:40:20;4.90;;;4.50;;
562;SDS011;266;49.514;8.294;2024-02-14T02:42:48;5.10;;;4.70;;
562;SDS011;266;49.514;8.294;2024-02-14T02:45:17;4.93;;;4.37;;
562;SDS011;266;49.514;8.294;2024-02-14T02:47:45;4.90;;;4.50;;
562;SDS011;266;49.514;8.294;2024-02-14T02:50:14;7.53;;;4.70;;
562;SDS011;266;49.514;8.294;2024-02-14T02:52:42;7.10;;;5.50;;
562;SDS011;266;49.514;8.294;2024-02-14T02:55:10;6.07;;;5.37;;
562;SDS011;266;49.514;8.294;2024-02-14T02:57:41;5.70;;;4.70;;
562;SDS011;266;49.514;8.294;2024-02-14T03:00:10;5.90;;;4.87;;
562;SDS011;266;49.514;8.294;2024-02-14T03:02:40;6.20;;;4.30;;
562;SDS011;266;49.514;8.294;2024-02-14T03:05:11;5.37;;;4.83;;
562;SDS011;266;49.514;8.294;2024-02-14T03:07:45;10.40;;;6.00;;
562;SDS011;266;49.514;8.294;2024-02-14T03:10:15;5.97;;;5.00;;
562;SDS011;266;49.514;8.294;2024-02-14T03:12:47;9.13;;;4.50;;
562;SDS011;266;49.514;8.294;2024-02-14T03:15:15;4.83;;;4.30;;
562;SDS011;266;49.514;8.294;2024-02-14T03:17:44;5.20;;;4.57;;
562;SDS011;266;49.514;8.294;2024-02-14T03:20:13;9.33;;;5.90;;
562;SDS011;266;49.514;8.294;2024-02-14T03:22:44;4.40;;;4.00;;
562;SDS011;266;49.514;8.294;2024-02-14T03:25:13;4.73;;;4.37;;
562;SDS011;266;49.514;8.294;2024-02-14T03:27:44;9.60;;;4.90;;
562;SDS011;266;49.514;8.294;2024-02-14T03:30:15;5.03;;;4.63;;
562;SDS011;266;49.514;8.294;2024-02-14T03:32:44;5.40;;;4.90;;
562;SDS011;266;49.514;8.294;2024-02-14T03:35:13;5.20;;;4.70;;
562;SDS011;266;49.514;8.294;2024-02-14T03:37:41;4.70;;;4.03;;
562;SDS011;266;49.514;8.294;2024-02-14T03:40:14;4.70;;;4.20;;
562;SDS011;266;49.514;8.294;2024-02-14T03:42:42;4.13;;;3.73;;
562;SDS011;266;49.514;8.294;2024-02-14T03:45:10;5.17;;;4.77;;
562;SDS011;266;49.514;8.294;2024-02-14T03:47:40;4.57;;;4.17;;
562;SDS011;266;49.514;8.294;2024-02-14T03:50:08;6.47;;;4.80;;
562;SDS011;266;49.514;8.294;2024-02-14T03:52:37;7.50;;;5.00;;
562;SDS011;266;49.514;8.294;2024-02-14T03:55:05;6.67;;;4.97;;
562;SDS011;266;49.514;8.294;2024-02-14T03:57:35;4.83;;;3.50;;
562;SDS011;266;49.514;8.294;2024-02-14T04:00:05;5.50;;;4.40;;
562;SDS011;266;49.514;8.294;2024-02-14T04:02:37;6.27;;;5.60;;
562;SDS011;266;49.514;8.294;2024-02-14T04:05:08;4.90;;;4.00;;
562;SDS011;266;49.514;8.294;2024-02-14T04:07:36;4.87;;;4.00;;
562;SDS011;266;49.514;8.294;2024-02-14T04:10:05;3.97;;;3.67;;
562;SDS011;266;49.514;8.294;2024-02-14T04:12:33;3.97;;;3.47;;
562;SDS011;266;49.514;8.294;2024-02-14T04:15:02;4.33;;;3.93;;
562;SDS011;266;49.514;8.294;2024-02-14T04:17:30;4.77;;;3.83;;
562;SDS011;266;49.514;8.294;2024-02-14T04:19:58;3.87;;;3.57;;
562;SDS011;266;49.514;8.294;2024-02-14T04:22:27;7.00;;;3.87;;
562;SDS011;266;49.514;8.294;2024-02-14T04:24:55;3.70;;;3.40;;
562;SDS011;266;49.514;8.294;2024-02-14T04:27:23;3.20;;;2.87;;
562;SDS011;266;49.514;8.294;2024-02-14T04:29:52;4.90;;;3.67;;
562;SDS011;266;49.514;8.294;2024-02-14T04:32:21;4.07;;;3.67;;
562;SDS011;266;49.514;8.294;2024-02-14T04:34:49;3.17;;;2.57;;
562;SDS011;266;49.514;8.294;2024-02-14T04:37:18;4.77;;;2.80;;
562;SDS011;266;49.514;8.294;2024-02-14T04:39:48;3.43;;;2.40;;
562;SDS011;266;49.514;8.294;2024-02-14T04:42:16;3.03;;;2.83;;
562;SDS011;266;49.514;8.294;2024-02-14T04:44:44;6.80;;;3.47;;
562;SDS011;266;49.514;8.294;2024-02-14T04:47:12;3.37;;;2.57;;
562;SDS011;266;49.514;8.294;2024-02-14T04:49:41;2.43;;;2.23;;
562;SDS011;266;49.514;8.294;2024-02-14T04:52:09;3.90;;;2.67;;
562;SDS011;266;49.514;8.294;2024-02-14T04:54:37;2.93;;;2.73;;
562;SDS011;266;49.514;8.294;2024-02-14T04:57:06;2.70;;;2.50;;
562;SDS011;266;49.514;8.294;2024-02-14T04:59:34;3.67;;;2.60;;
562;SDS011;266;49.514;8.294;2024-02-14T05:02:02;5.47;;;3.00;;
562;SDS011;266;49.514;8.294;2024-02-14T05:04:30;3.03;;;2.63;;
562;SDS011;266;49.514;8.294;2024-02-14T05:07:01;3.70;;;3.13;;
562;SDS011;266;49.514;8.294;2024-02-14T05:09:30;2.57;;;2.37;;
562;SDS011;266;49.514;8.294;2024-02-14T05:11:58;3.10;;;2.73;;
562;SDS011;266;49.514;8.294;2024-02-14T05:14:27;3.33;;;3.00;;
562;SDS011;266;49.514;8.294;2024-02-14T05:16:57;5.13;;;3.00;;
562;SDS011;266;49.514;8.294;2024-02-14T05:19:27;4.50;;;2.90;;
562;SDS011;266;49.514;8.294;2024-02-14T05:21:56;3.30;;;3.00;;
562;SDS011;266;49.514;8.294;2024-02-14T05:24:24;3.50;;;3.20;;
562;SDS011;266;49.514;8.294;2024-02-14T05:26:53;3.70;;;3.37;;
562;SDS011;266;49.514;8.294;2024-02-14T05:29:21;2.80;;;2.60;;
562;SDS011;266;49.514;8.294;2024-02-14T05:31:50;3.70;;;3.30;;
562;SDS011;266;49.514;8.294;2024-02-14T05:34:21;3.37;;;2.60;;
562;SDS011;266;49.514;8.294;2024-02-14T05:36:50;3.30;;;3.00;;
562;SDS011;266;49.514;8.294;2024-02-14T05:39:18;4.00;;;3.37;;
562;SDS011;266;49.514;8.294;2024-02-14T05:41:46;5.30;;;2.90;;
562;SDS011;266;49.514;8.294;2024-02-14T05:44:15;3.60;;;3.03;;
562;SDS011;266;49.514;8.294;2024-02-14T05:46:43;3.43;;;3.13;;
562;SDS011;266;49.514;8.294;2024-02-14T05:49:14;3.30;;;2.80;;
562;SDS011;266;49.514;8.294;2024-02-14T05:51:42;3.30;;;2.97;;
562;SDS011;266;49.514;8.294;2024-02-14T05:54:10;4.43;;;3.37;;
562;SDS011;266;49.514;8.294;2024-02-14T05:56:38;2.40;;;2.20;;
562;SDS011;266;49.514;8.294;2024-02-14T05:59:06;3.50;;;2.47;;
562;SDS011;266;49.514;8.294;2024-02-14T06:01:34;3.30;;;3.00;;
562;SDS011;266;49.514;8.294;2024-02-14T06:04:02;3.23;;;2.67;;
562;SDS011;266;49.514;8.294;2024-02-14T06:06:32;3.47;;;3.00;;
562;SDS011;266;49.514;8.294;2024-02-14T06:09:00;4.70;;;2.30;;
562;SDS011;266;49.514;8.294;2024-02-14T06:11:35;5.33;;;2.70;;
562;SDS011;266;49.514;8.294;2024-02-14T06:14:05;3.50;;;2.50;;
562;SDS011;266;49.514;8.294;2024-02-14T06:16:33;2.50;;;2.30;;
562;SDS011;266;49.514;8.294;2024-02-14T06:19:01;2.50;;;2.10;;
562;SDS011;266;49.514;8.294;2024-02-14T06:21:32;3.57;;;2.73;;
562;SDS011;266;49.514;8.294;2024-02-14T06:24:00;6.63;;;3.37;;
562;SDS011;266;49.514;8.294;2024-02-14T06:26:30;4.90;;;2.40;;
562;SDS011;266;49.514;8.294;2024-02-14T06:28:59;3.70;;;3.23;;
562;SDS011;266;49.514;8.294;2024-02-14T06:31:31;6.50;;;2.80;;
562;SDS011;266;49.514;8.294;2024-02-14T06:33:59;4.60;;;2.70;;
562;SDS011;266;49.514;8.294;2024-02-14T06:36:28;3.43;;;3.00;;
562;SDS011;266;49.514;8.294;2024-02-14T06:39:00;5.00;;;2.77;;
562;SDS011;266;49.514;8.294;2024-02-14T06:41:28;4.23;;;2.97;;
562;SDS011;266;49.514;8.294;2024-02-14T06:43:57;2.80;;;2.60;;
562;SDS011;266;49.514;8.294;2024-02-14T06:46:25;2.83;;;2.63;;
562;SDS011;266;49.514;8.294;2024-02-14T06:48:53;3.60;;;2.93;;
562;SDS011;266;49.514;8.294;2024-02-14T06:51:22;2.80;;;2.53;;
562;SDS011;266;49.514;8.294;2024-02-14T06:53:50;2.97;;;2.70;;
562;SDS011;266;49.514;8.294;2024-02-14T06:56:20;3.30;;;2.70;;
562;SDS011;266;49.514;8.294;2024-02-14T06:58:48;2.67;;;2.43;;
562;SDS011;266;49.514;8.294;2024-02-14T07:01:19;3.80;;;2.50;;
562;SDS011;266;49.514;8.294;2024-02-14T07:03:49;4.00;;;2.80;;
562;SDS011;266;49.514;8.294;2024-02-14T07:06:17;2.20;;;2.10;;
562;SDS011;266;49.514;8.294;2024-02-14T07:08:45;2.87;;;2.50;;
562;SDS011;266;49.514;8.294;2024-02-14T07:11:16;3.17;;;2.40;;
562;SDS011;266;49.514;8.294;2024-02-14T07:13:45;5.63;;;2.70;;
562;SDS011;266;49.514;8.294;2024-02-14T07:16:13;5.80;;;2.20;;
562;SDS011;266;49.514;8.294;2024-02-14T07:18:41;2.57;;;2.20;;
562;SDS011;266;49.514;8.294;2024-02-14T07:21:09;3.43;;;2.63;;
562;SDS011;266;49.514;8.294;2024-02-14T07:23:37;2.13;;;1.93;;
562;SDS011;266;49.514;8.294;2024-02-14T07:26:05;2.40;;;2.20;;
562;SDS011;266;49.514;8.294;2024-02-14T07:28:33;4.60;;;2.43;;
562;SDS011;266;49.514;8.294;2024-02-14T07:31:03;3.73;;;2.10;;
562;SDS011;266;49.514;8.294;2024-02-14T07:33:31;4.33;;;2.30;;
562;SDS011;266;49.514;8.294;2024-02-14T07:35:59;4.43;;;2.77;;
562;SDS011;266;49.514;8.294;2024-02-14T07:38:27;3.53;;;2.57;;
562;SDS011;266;49.514;8.294;2024-02-14T07:40:55;11.90;;;2.67;;
562;SDS011;266;49.514;8.294;2024-02-14T07:43:23;2.83;;;2.50;;
562;SDS011;266;49.514;8.294;2024-02-14T07:45:52;3.17;;;2.30;;
562;SDS011;266;49.514;8.294;2024-02-14T07:48:21;2.80;;;2.07;;
562;SDS011;266;49.514;8.294;2024-02-14T07:50:49;4.40;;;2.90;;
562;SDS011;266;49.514;8.294;2024-02-14T07:53:17;2.97;;;2.40;;
562;SDS011;266;49.514;8.294;2024-02-14T07:55:45;2.47;;;1.83;;
562;SDS011;266;49.514;8.294;2024-02-14T07:58:13;2.63;;;2.20;;
562;SDS011;266;49.514;8.294;2024-02-14T08:00:41;2.47;;;2.37;;
562;SDS011;266;49.514;8.294;2024-02-14T08:03:09;3.70;;;2.30;;
562;SDS011;266;49.514;8.294;2024-02-14T08:05:39;3.50;;;3.00;;
562;SDS011;266;49.514;8.294;2024-02-14T08:08:09;3.60;;;3.30;;
562;SDS011;266;49.514;8.294;2024-02-14T08:10:37;3.43;;;2.60;;
562;SDS011;266;49.514;8.294;2024-02-14T08:13:06;2.97;;;2.37;;
562;SDS011;266;49.514;8.294;2024-02-14T08:15:34;3.23;;;2.70;;
562;SDS011;266;49.514;8.294;2024-02-14T08:18:04;2.50;;;2.30;;
562;SDS011;266;49.514;8.294;2024-02-14T08:20:35;2.73;;;2.50;;
562;SDS011;266;49.514;8.294;2024-02-14T08:23:05;3.57;;;2.50;;
562;SDS011;266;49.514;8.294;2024-02-14T08:25:33;2.33;;;2.13;;
562;SDS011;266;49.514;8.294;2024-02-14T08:28:01;3.57;;;2.73;;
562;SDS011;266;49.514;8.294;2024-02-14T08:30:29;2.83;;;2.63;;
562;SDS011;266;49.514;8.294;2024-02-14T08:32:57;3.30;;;2.33;;
562;SDS011;266;49.514;8.294;2024-02-14T08:35:25;2.73;;;2.30;;
562;SDS011;266;49.514;8.294;2024-02-14T08:37:53;5.70;;;2.73;;
562;SDS011;266;49.514;8.294;2024-02-14T08:40:26;3.50;;;2.70;;
562;SDS011;266;49.514;8.294;2024-02-14T08:42:54;3.20;;;2.50;;
562;SDS011;266;49.514;8.294;2024-02-14T08:45:22;2.43;;;2.30;;
562;SDS011;266;49.514;8.294;2024-02-14T08:47:51;2.87;;;2.60;;
562;SDS011;266;49.514;8.294;2024-02-14T08:50:19;3.10;;;2.80;;
562;SDS011;266;49.514;8.294;2024-02-14T08:52:47;2.53;;;2.30;;
562;SDS011;266;49.514;8.294;2024-02-14T08:55:15;4.10;;;2.20;;
562;SDS011;266;49.514;8.294;2024-02-14T08:57:46;2.97;;;2.50;;
562;SDS011;266;49.514;8.294;2024-02-14T09:00:15;3.10;;;2.80;;
562;SDS011;266;49.514;8.294;2024-02-14T09:02:46;2.30;;;2.03;;
562;SDS011;266;49.514;8.294;2024-02-14T09:05:15;2.30;;;2.10;;
562;SDS011;266;49.514;8.294;2024-02-14T09:07:45;2.20;;;2.00;;
562;SDS011;266;49.514;8.294;2024-02-14T09:10:13;2.70;;;2.33;;
562;SDS011;266;49.514;8.294;2024-02-14T09:12:41;3.60;;;2.63;;
562;SDS011;266;49.514;8.294;2024-02-14T09:15:11;3.03;;;2.73;;
562;SDS011;266;49.514;8.294;2024-02-14T09:17:39;2.73;;;2.53;;
562;SDS011;266;49.514;8.294;2024-02-14T09:20:10;2.53;;;2.33;;
562;SDS011;266;49.514;8.294;2024-02-14T09:22:41;2.90;;;2.13;;
562;SDS011;266;49.514;8.294;2024-02-14T09:25:09;3.33;;;2.50;;
562;SDS011;266;49.514;8.294;2024-02-14T09:27:37;3.20;;;2.90;;
562;SDS011;266;49.514;8.294;2024-02-14T09:30:06;3.30;;;2.67;;
562;SDS011;266;49.514;8.294;2024-02-14T09:32:44;2.50;;;2.30;;
562;SDS011;266;49.514;8.294;2024-02-14T09:35:14;3.23;;;2.63;;
562;SDS011;266;49.514;8.294;2024-02-14T09:37:41;4.47;;;2.40;;
562;SDS011;266;49.514;8.294;2024-02-14T09:40:10;3.53;;;3.23;;
562;SDS011;266;49.514;8.294;2024-02-14T09:42:41;4.13;;;2.50;;
562;SDS011;266;49.514;8.294;2024-02-14T09:45:12;2.60;;;2.40;;
562;SDS011;266;49.514;8.294;2024-02-14T09:47:49;3.00;;;2.13;;
562;SDS011;266;49.514;8.294;2024-02-14T09:50:17;2.60;;;2.40;;
562;SDS011;266;49.514;8.294;2024-02-14T09:52:47;3.10;;;2.40;;
562;SDS011;266;49.514;8.294;2024-02-14T09:55:15;1.83;;;1.50;;
562;SDS011;266;49.514;8.294;2024-02-14T09:57:44;2.40;;;2.30;;
562;SDS011;266;49.514;8.294;2024-02-14T10:00:15;3.20;;;2.80;;
562;SDS011;266;49.514;8.294;2024-02-14T10:02:44;3.80;;;2.37;;
562;SDS011;266;49.514;8.294;2024-02-14T10:05:13;3.73;;;2.37;;
562;SDS011;266;49.514;8.294;2024-02-14T10:07:41;2.17;;;2.07;;
562;SDS011;266;49.514;8.294;2024-02-14T10:10:11;2.40;;;2.20;;
562;SDS011;266;49.514;8.294;2024-02-14T10:12:40;3.03;;;2.60;;
562;SDS011;266;49.514;8.294;2024-02-14T10:15:09;2.60;;;2.40;;
562;SDS011;266;49.514;8.294;2024-02-14T10:17:38;2.60;;;1.93;;
562;SDS011;266;49.514;8.294;2024-02-14T10:20:08;2.20;;;2.00;;
562;SDS011;266;49.514;8.294;2024-02-14T10:22:38;2.23;;;2.03;;
562;SDS011;266;49.514;8.294;2024-02-14T10:25:07;2.60;;;1.93;;
562;SDS011;266;49.514;8.294;2024-02-14T10:27:36;2.30;;;2.10;;
562;SDS011;266;49.514;8.294;2024-02-14T10:30:05;2.90;;;2.20;;
562;SDS011;266;49.514;8.294;2024-02-14T10:32:36;2.40;;;2.20;;
562;SDS011;266;49.514;8.294;2024-02-14T10:35:05;1.87;;;1.77;;
562;SDS011;266;49.514;8.294;2024-02-14T10:37:35;1.73;;;1.43;;
562;SDS011;266;49.514;8.294;2024-02-14T10:40:06;4.00;;;1.43;;
562;SDS011;266;49.514;8.294;2024-02-14T10:42:35;1.80;;;1.40;;
562;SDS011;266;49.514;8.294;2024-02-14T10:45:03;1.73;;;1.30;;
562;SDS011;266;49.514;8.294;2024-02-14T10:47:34;1.77;;;1.13;;
562;SDS011;266;49.514;8.294;2024-02-14T10:50:03;1.77;;;1.40;;
562;SDS011;266;49.514;8.294;2024-02-14T10:52:33;1.30;;;1.20;;
562;SDS011;266;49.514;8.294;2024-02-14T10:55:03;1.40;;;1.30;;
562;SDS011;266;49.514;8.294;2024-02-14T10:57:34;2.10;;;1.10;;
562;SDS011;266;49.514;8.294;2024-02-14T11:00:02;2.30;;;1.73;;
562;SDS011;266;49.514;8.294;2024-02-14T11:02:33;1.63;;;1.53;;
562;SDS011;266;49.514;8.294;2024-02-14T11:05:11;1.77;;;1.67;;
562;SDS011;266;49.514;8.294;2024-02-14T11:07:44;1.40;;;1.30;;
562;SDS011;266;49.514;8.294;2024-02-14T11:10:15;1.40;;;1.30;;
562;SDS011;266;49.514;8.294;2024-02-14T11:12:45;1.00;;;1.00;;
562;SDS011;266;49.514;8.294;2024-02-14T11:15:16;1.50;;;1.27;;
562;SDS011;266;49.514;8.294;2024-02-14T11:17:45;1.70;;;1.60;;
562;SDS011;266;49.514;8.294;2024-02-14T11:20:16;1.30;;;1.20;;
562;SDS011;266;49.514;8.294;2024-02-14T11:22:54;2.40;;;2.00;;
562;SDS011;266;49.514;8.294;2024-02-14T11:25:29;1.30;;;1.20;;
562;SDS011;266;49.514;8.294;2024-02-14T11:27:58;1.10;;;1.00;;
562;SDS011;266;49.514;8.294;2024-02-14T11:30:28;1.53;;;1.23;;
562;SDS011;266;49.514;8.294;2024-02-14T11:33:13;1.60;;;1.50;;
562;SDS011;266;49.514;8.294;2024-02-14T11:35:42;1.20;;;1.10;;
562;SDS011;266;49.514;8.294;2024-02-14T11:38:11;1.70;;;1.60;;
562;SDS011;266;49.514;8.294;2024-02-14T11:40:41;1.30;;;1.20;;
562;SDS011;266;49.514;8.294;2024-02-14T11:43:14;1.57;;;1.23;;
562;SDS011;266;49.514;8.294;2024-02-14T11:45:43;2.30;;;1.20;;
562;SDS011;266;49.514;8.294;2024-02-14T11:48:13;1.27;;;1.10;;
562;SDS011;266;49.514;8.294;2024-02-14T11:50:42;1.83;;;1.40;;
562;SDS011;266;49.514;8.294;2024-02-14T11:53:12;3.43;;;1.30;;
562;SDS011;266;49.514;8.294;2024-02-14T11:55:44;1.40;;;1.30;;
562;SDS011;266;49.514;8.294;2024-02-14T11:58:16;6.17;;;3.37;;
562;SDS011;266;49.514;8.294;2024-02-14T12:00:45;1.53;;;1.43;;
562;SDS011;266;49.514;8.294;2024-02-14T12:03:16;1.50;;;1.40;;
562;SDS011;266;49.514;8.294;2024-02-14T12:05:46;1.40;;;1.30;;
562;SDS011;266;49.514;8.294;2024-02-14T12:08:15;2.03;;;1.50;;
562;SDS011;266;49.514;8.294;2024-02-14T12:10:45;1.30;;;1.20;;
562;SDS011;266;49.514;8.294;2024-02-14T12:13:17;1.80;;;1.50;;
562;SDS011;266;49.514;8.294;2024-02-14T12:15:52;1.37;;;1.27;;
562;SDS011;266;49.514;8.294;2024-02-14T12:18:21;3.97;;;1.37;;
562;SDS011;266;49.514;8.294;2024-02-14T12:20:50;2.53;;;1.40;;
562;SDS011;266;49.514;8.294;2024-02-14T12:23:22;1.53;;;1.43;;
562;SDS011;266;49.514;8.294;2024-02-14T12:25:54;1.60;;;1.50;;
562;SDS011;266;49.514;8.294;2024-02-14T12:28:29;1.40;;;1.30;;
562;SDS011;266;49.514;8.294;2024-02-14T12:31:00;1.80;;;1.20;;
562;SDS011;266;49.514;8.294;2024-02-14T12:33:29;1.03;;;0.93;;
562;SDS011;266;49.514;8.294;2024-02-14T12:36:00;2.37;;;1.10;;
562;SDS011;266;49.514;8.294;2024-02-14T12:38:30;1.30;;;1.20;;
562;SDS011;266;49.514;8.294;2024-02-14T12:41:02;1.97;;;1.60;;
562;SDS011;266;49.514;8.294;2024-02-14T12:43:30;1.33;;;1.23;;
562;SDS011;266;49.514;8.294;2024-02-14T12:45:58;1.40;;;1.30;;
562;SDS011;266;49.514;8.294;2024-02-14T12:48:26;1.30;;;1.20;;
562;SDS011;266;49.514;8.294;2024-02-14T12:50:56;1.47;;;1.27;;
562;SDS011;266;49.514;8.294;2024-02-14T12:53:24;1.53;;;1.13;;
562;SDS011;266;49.514;8.294;2024-02-14T12:55:53;1.40;;;1.30;;
562;SDS011;266;49.514;8.294;2024-02-14T12:58:22;2.50;;;1.40;;
562;SDS011;266;49.514;8.294;2024-02-14T13:00:50;1.53;;;1.43;;
562;SDS011;266;49.514;8.294;2024-02-14T13:03:18;1.50;;;1.40;;
562;SDS011;266;49.514;8.294;2024-02-14T13:05:46;1.23;;;1.10;;
562;SDS011;266;49.514;8.294;2024-02-14T13:08:15;2.03;;;1.40;;
562;SDS011;266;49.514;8.294;2024-02-14T13:10:44;1.50;;;1.40;;
562;SDS011;266;49.514;8.294;2024-02-14T13:13:12;1.93;;;1.83;;
562;SDS011;266;49.514;8.294;2024-02-14T13:15:42;1.47;;;1.37;;
562;SDS011;266;49.514;8.294;2024-02-14T13:18:11;1.30;;;1.10;;
562;SDS011;266;49.514;8.294;2024-02-14T13:20:39;1.03;;;1.00;;
562;SDS011;266;49.514;8.294;2024-02-14T13:23:09;1.23;;;1.13;;
562;SDS011;266;49.514;8.294;2024-02-14T13:25:37;1.43;;;1.10;;
562;SDS011;266;49.514;8.294;2024-02-14T13:28:05;1.80;;;1.50;;
562;SDS011;266;49.514;8.294;2024-02-14T13:30:33;1.83;;;1.10;;
562;SDS011;266;49.514;8.294;2024-02-14T13:33:05;1.40;;;1.30;;
562;SDS011;266;49.514;8.294;2024-02-14T13:35:36;1.33;;;1.20;;
562;SDS011;266;49.514;8.294;2024-02-14T13:40:36;1.83;;;1.30;;
562;SDS011;266;49.514;8.294;2024-02-14T13:43:04;1.50;;;1.40;;
562;SDS011;266;49.514;8.294;2024-02-14T13:45:39;1.10;;;1.00;;
562;SDS011;266;49.514;8.294;2024-02-14T13:48:11;1.20;;;1.10;;
562;SDS011;266;49.514;8.294;2024-02-14T13:50:40;1.33;;;1.10;;
562;SDS011;266;49.514;8.294;2024-02-14T13:53:09;1.10;;;1.00;;
562;SDS011;266;49.514;8.294;2024-02-14T13:55:37;1.10;;;1.00;;
562;SDS011;266;49.514;8.294;2024-02-14T13:58:05;1.23;;;1.13;;
562;SDS011;266;49.514;8.294;2024-02-14T14:00:40;1.90;;;1.50;;
562;SDS011;266;49.514;8.294;2024-02-14T14:03:08;1.30;;;1.20;;
562;SDS011;266;49.514;8.294;2024-02-14T14:05:38;1.10;;;0.93;;
562;SDS011;266;49.514;8.294;2024-02-14T14:08:07;1.83;;;1.00;;
562;SDS011;266;49.514;8.294;2024-02-14T14:10:35;1.53;;;1.00;;
562;SDS011;266;49.514;8.294;2024-02-14T14:13:03;1.10;;;0.90;;
562;SDS011;266;49.514;8.294;2024-02-14T14:15:31;1.10;;;1.10;;
562;SDS011;266;49.514;8.294;2024-02-14T14:17:59;1.20;;;1.10;;
562;SDS011;266;49.514;8.294;2024-02-14T14:20:29;1.10;;;1.00;;
562;SDS011;266;49.514;8.294;2024-02-14T14:22:57;1.40;;;1.30;;
562;SDS011;266;49.514;8.294;2024-02-14T14:25:25;1.77;;;1.07;;
562;SDS011;266;49.514;8.294;2024-02-14T14:27:54;1.10;;;1.00;;
562;SDS011;266;49.514;8.294;2024-02-14T14:30:22;0.90;;;0.90;;
562;SDS011;266;49.514;8.294;2024-02-14T14:32:50;0.90;;;0.90;;
562;SDS011;266;49.514;8.294;2024-02-14T14:35:18;1.07;;;1.00;;
562;SDS011;266;49.514;8.294;2024-02-14T14:37:47;1.00;;;0.90;;
562;SDS011;266;49.514;8.294;2024-02-14T14:40:15;1.13;;;1.03;;
562;SDS011;266;49.514;8.294;2024-02-14T14:42:44;1.30;;;1.20;;
562;SDS011;266;49.514;8.294;2024-02-14T14:45:12;1.10;;;1.00;;
562;SDS011;266;49.514;8.294;2024-02-14T14:47:40;1.10;;;1.00;;
562;SDS011;266;49.514;8.294;2024-02-14T14:50:11;1.00;;;0.90;;
562;SDS011;266;49.514;8.294;2024-02-14T14:52:39;1.13;;;0.90;;
562;SDS011;266;49.514;8.294;2024-02-14T14:55:09;1.20;;;1.10;;
562;SDS011;266;49.514;8.294;2024-02-14T14:57:37;1.00;;;0.90;;
562;SDS011;266;49.514;8.294;2024-02-14T15:00:07;1.00;;;0.90;;
562;SDS011;266;49.514;8.294;2024-02-14T15:02:37;1.10;;;1.00;;
562;SDS011;266;49.514;8.294;2024-02-14T15:05:07;1.63;;;1.50;;
562;SDS011;266;49.514;8.294;2024-02-14T15:07:35;1.37;;;1.27;;
562;SDS011;266;49.514;8.294;2024-02-14T15:10:04;1.20;;;1.10;;
562;SDS011;266;49.514;8.294;2024-02-14T15:12:35;1.93;;;1.50;;
562;SDS011;266;49.514;8.294;2024-02-14T15:15:05;1.10;;;1.00;;
562;SDS011;266;49.514;8.294;2024-02-14T15:17:36;1.00;;;0.90;;
562;SDS011;266;49.514;8.294;2024-02-14T15:20:05;1.10;;;1.00;;
562;SDS011;266;49.514;8.294;2024-02-14T15:22:35;1.00;;;0.90;;
562;SDS011;266;49.514;8.294;2024-02-14T15:25:04;1.10;;;1.03;;
562;SDS011;266;49.514;8.294;2024-02-14T15:27:32;1.40;;;1.30;;
562;SDS011;266;49.514;8.294;2024-02-14T15:30:10;1.10;;;1.10;;
562;SDS011;266;49.514;8.294;2024-02-14T15:32:58;1.30;;;1.20;;
562;SDS011;266;49.514;8.294;2024-02-14T15:35:44;1.40;;;1.30;;
562;SDS011;266;49.514;8.294;2024-02-14T15:38:12;1.73;;;1.27;;
562;SDS011;266;49.514;8.294;2024-02-14T15:40:42;1.43;;;1.33;;
562;SDS011;266;49.514;8.294;2024-02-14T15:43:13;1.53;;;1.20;;
562;SDS011;266;49.514;8.294;2024-02-14T15:45:41;1.20;;;1.10;;
562;SDS011;266;49.514;8.294;2024-02-14T15:48:09;1.00;;;0.90;;
562;SDS011;266;49.514;8.294;2024-02-14T15:50:39;1.57;;;1.10;;
562;SDS011;266;49.514;8.294;2024-02-14T15:53:07;3.57;;;1.40;;
562;SDS011;266;49.514;8.294;2024-02-14T15:55:35;2.57;;;1.43;;
562;SDS011;266;49.514;8.294;2024-02-14T15:58:03;1.93;;;1.20;;
562;SDS011;266;49.514;8.294;2024-02-14T16:00:33;1.43;;;1.33;;